Watertown, NY (13602)

1:32 AM EST on February 08, 2016 (GMT -0500)
Calcium NY | | Change Station
CLOSE
Current Station
Personal Weather Station
Location: Calcium, NY
Elevation: 489 ft
Nearby Weather Stations

Elev 489 ft 44.03 °N, 75.83 °W | Updated 3 minutes ago

Clear
Clear
24.8 °F
Feels Like 25 °F
N
0.0
Wind Variable Wind from NNE
Gusts 2.0 mph

Today
High -- | Low -- °F
--% Chance of Precip.
Yesterday
High -- | Low -- °F
Precip. -- in
Pressure 29.91 in
Visibility 10.0 miles
Clouds Clear
Windchill 25 °F
Dew Point 20 °F
Humidity 80%
Rainfall 0.00 in
Snow Depth Not available.
7:12 AM 5:22 PM
Waning Crescent, 0% visible
METAR KGTB 080558Z AUTO 10006KT 10SM CLR M03/M05 A2988 RMK AO2 SLP126 T10351053 10007 21035 57025
Pressure 29.91 in
Visibility 10.0 miles
Clouds Clear
Windchill 25 °F
Dew Point 20 °F
Humidity 80%
Rainfall 0.00 in
Snow Depth Not available.
7:12 AM 5:22 PM
Waning Crescent, 0% visible
METAR KGTB 080558Z AUTO 10006KT 10SM CLR M03/M05 A2988 RMK AO2 SLP126 T10351053 10007 21035 57025

10-Day Weather Forecast

Almanac

Astronomy

Feb. 08, 2016 Rise Set
Actual Time
Civil Twilight
Nautical Twilight
Astronomical Twilight
Moon
Length of Visible Light
Length of Day
Tomorrow will be .
, % of the Moon is Illuminated

Today's Extremes

State Highs State Lows

Community

WunderPhotos

Upload Photos

1,891,395 photos uploaded!

WunderBlog® & News

Nearby

Air Quality

  Air Quality AQ Index Pollutant
Not available.

Snow Depth

Station Depth Elevation

Earthquake Activity

City Distance Mag. Time & Date
Minimum magnitude displayed is 2.5.

Coastal Water Temperatures

Place Temperature

Stations

Nearby Weather Stations

Station Location Temp. Windchill Dew Point Humidity Wind Precip. Elev Updated Type
                   

Watches & Warnings

There are currently no watches in effect.